createdAt,value
2022-07-28T03:01:40.831Z,19.10
2022-07-28T03:04:10.211Z,19.20
2022-07-28T03:06:38.272Z,19.10
2022-07-28T03:09:06.955Z,19.10
2022-07-28T03:11:35.512Z,19.10
2022-07-28T03:14:03.402Z,19.10
2022-07-28T03:16:31.318Z,19.00
2022-07-28T03:19:00.528Z,19.00
2022-07-28T03:21:28.397Z,19.00
2022-07-28T03:23:57.348Z,18.80
2022-07-28T03:26:33.583Z,18.50
2022-07-28T03:29:02.386Z,18.40
2022-07-28T03:31:32.635Z,18.20
2022-07-28T03:34:02.224Z,17.90
2022-07-28T03:36:47.099Z,17.70
2022-07-28T03:39:16.684Z,17.70
2022-07-28T03:41:46.530Z,17.80
2022-07-28T03:44:17.092Z,17.80
2022-07-28T03:46:56.019Z,17.80
2022-07-28T03:49:25.207Z,17.90
2022-07-28T03:51:53.055Z,18.10
2022-07-28T03:54:20.899Z,18.20
2022-07-28T03:56:48.748Z,18.10
2022-07-28T03:59:17.864Z,18.10
2022-07-28T04:01:46.239Z,18.10
2022-07-28T04:04:14.561Z,18.00
2022-07-28T04:06:44.095Z,18.00
2022-07-28T04:09:11.943Z,18.00
2022-07-28T04:11:39.787Z,17.90
2022-07-28T04:14:10.062Z,17.90
2022-07-28T04:16:41.250Z,17.80
2022-07-28T04:19:09.110Z,17.90
2022-07-28T04:21:37.014Z,17.90
2022-07-28T04:24:07.519Z,17.90
2022-07-28T04:26:35.367Z,18.00
2022-07-28T04:29:03.609Z,18.10
2022-07-28T04:31:31.603Z,18.10
2022-07-28T04:33:59.989Z,18.10
2022-07-28T04:36:27.924Z,18.20
2022-07-28T04:38:57.481Z,18.30
2022-07-28T04:41:27.619Z,18.20
2022-07-28T04:43:55.476Z,18.00
2022-07-28T04:46:23.395Z,18.00
2022-07-28T04:48:51.367Z,17.90
2022-07-28T04:51:19.365Z,17.90
2022-07-28T04:53:47.561Z,18.00
2022-07-28T04:56:15.497Z,18.10
2022-07-28T04:58:44.728Z,18.20
2022-07-28T05:01:14.492Z,18.30
2022-07-28T05:03:42.390Z,18.50
2022-07-28T05:06:10.267Z,18.60
2022-07-28T05:08:38.116Z,18.60
2022-07-28T05:11:06.031Z,18.70
2022-07-28T05:13:34.453Z,18.70
2022-07-28T05:16:04.057Z,18.80
2022-07-28T05:18:32.345Z,18.90
2022-07-28T05:21:00.309Z,18.90
2022-07-28T05:23:28.337Z,18.90
2022-07-28T05:25:56.563Z,19.00
2022-07-28T05:28:24.579Z,19.10
2022-07-28T05:30:52.507Z,19.20
2022-07-28T05:33:21.670Z,19.20
2022-07-28T05:35:57.406Z,19.30
2022-07-28T05:38:25.259Z,19.40
2022-07-28T05:40:53.477Z,19.40
2022-07-28T05:43:22.125Z,19.40
2022-07-28T05:45:50.221Z,19.50
2022-07-28T05:48:19.713Z,19.50
2022-07-28T05:50:49.974Z,19.50
2022-07-28T05:53:19.332Z,19.70
2022-07-28T05:56:01.238Z,19.80
2022-07-28T05:58:30.535Z,19.80
2022-07-28T06:01:00.055Z,19.90
2022-07-28T06:03:28.209Z,20.00
2022-07-28T06:06:00.805Z,20.10
2022-07-28T06:08:43.401Z,20.20
2022-07-28T06:11:11.727Z,20.30
2022-07-28T06:13:40.785Z,20.50
2022-07-28T06:16:13.138Z,20.50
2022-07-28T06:18:43.837Z,20.50
2022-07-28T06:21:13.122Z,20.50
2022-07-28T06:23:41.191Z,20.60
2022-07-28T06:26:09.067Z,20.70
2022-07-28T06:28:37.951Z,20.70
2022-07-28T06:31:05.941Z,20.70
2022-07-28T06:33:33.889Z,20.80
2022-07-28T06:36:01.814Z,20.80
2022-07-28T06:38:31.337Z,20.80
2022-07-28T06:41:00.111Z,20.90
2022-07-28T06:43:28.067Z,21.00
2022-07-28T06:45:55.921Z,21.00
2022-07-28T06:48:28.766Z,21.00
2022-07-28T06:50:59.463Z,21.10
2022-07-28T06:53:33.629Z,21.10
2022-07-28T06:56:04.323Z,21.20
2022-07-28T06:58:32.416Z,21.30
2022-07-28T07:01:00.428Z,21.30
2022-07-28T07:03:28.458Z,21.30
2022-07-28T07:05:57.571Z,21.30
2022-07-28T07:08:25.558Z,21.30
2022-07-28T07:10:54.831Z,21.30
2022-07-28T07:13:24.071Z,21.40
2022-07-28T07:15:52.018Z,21.50
2022-07-28T07:18:19.924Z,21.50
2022-07-28T07:20:48.957Z,21.60
2022-07-28T07:23:16.893Z,21.60
2022-07-28T07:25:44.780Z,21.60
2022-07-28T07:28:12.660Z,21.70
2022-07-28T07:30:41.858Z,21.60
2022-07-28T07:33:10.426Z,21.60
2022-07-28T07:35:38.782Z,21.80
2022-07-28T07:38:06.943Z,21.80
2022-07-28T07:40:34.987Z,21.80
2022-07-28T07:43:02.994Z,21.80
2022-07-28T07:45:30.893Z,21.90
2022-07-28T07:48:00.101Z,21.90
2022-07-28T07:50:28.359Z,22.00
2022-07-28T07:52:56.418Z,22.00
2022-07-28T07:55:24.315Z,22.00
2022-07-28T07:57:52.253Z,22.10
2022-07-28T08:00:29.218Z,22.20
2022-07-28T08:02:57.770Z,22.20
2022-07-28T08:05:35.574Z,22.20
2022-07-28T08:08:05.771Z,22.20
2022-07-28T08:10:33.935Z,22.20
2022-07-28T08:13:03.072Z,22.20
2022-07-28T08:15:31.505Z,22.40
2022-07-28T08:17:59.439Z,22.50
2022-07-28T08:20:28.651Z,22.60
2022-07-28T08:22:58.111Z,22.70
2022-07-28T08:25:26.982Z,22.80
2022-07-28T08:27:54.887Z,22.90
2022-07-28T08:30:27.540Z,22.80
2022-07-28T08:32:59.359Z,22.80
2022-07-28T08:35:34.257Z,22.90
2022-07-28T08:38:03.658Z,22.90
2022-07-28T08:40:33.152Z,23.00
2022-07-28T08:43:07.266Z,23.00
2022-07-28T08:45:37.217Z,23.00
2022-07-28T08:48:08.513Z,23.00
2022-07-28T08:50:39.449Z,23.10
2022-07-28T08:53:08.536Z,23.20
2022-07-28T08:55:37.199Z,23.20
2022-07-28T08:58:05.484Z,23.20
2022-07-28T09:00:33.504Z,23.20
2022-07-28T09:03:04.430Z,23.40
2022-07-28T09:05:33.092Z,23.40
2022-07-28T09:08:03.809Z,23.50
2022-07-28T09:10:32.048Z,23.60
2022-07-28T09:12:59.960Z,23.70
2022-07-28T09:15:28.115Z,23.70
2022-07-28T09:17:56.594Z,23.90
2022-07-28T09:20:25.098Z,23.90
2022-07-28T09:23:00.660Z,24.00
2022-07-28T09:25:30.742Z,24.00
2022-07-28T09:28:08.125Z,24.10
2022-07-28T09:30:37.897Z,24.20
2022-07-28T09:33:43.168Z,24.20
2022-07-28T09:36:15.218Z,24.30
2022-07-28T09:38:43.122Z,24.40
2022-07-28T09:41:12.491Z,24.40
2022-07-28T09:43:42.308Z,24.50
2022-07-28T09:46:11.710Z,24.70
2022-07-28T09:48:52.888Z,24.80
2022-07-28T09:51:22.907Z,24.90
2022-07-28T09:53:52.778Z,25.00
2022-07-28T09:56:23.407Z,25.00
2022-07-28T09:58:55.647Z,25.10
2022-07-28T10:01:25.886Z,25.30
2022-07-28T10:04:13.675Z,25.40
2022-07-28T10:06:41.706Z,25.50
2022-07-28T10:09:14.285Z,25.60
2022-07-28T10:11:44.042Z,25.70
2022-07-28T10:14:13.525Z,25.70
2022-07-28T10:16:46.814Z,25.80
2022-07-28T10:19:14.696Z,25.90
2022-07-28T10:21:45.091Z,26.00
2022-07-28T10:24:18.409Z,26.00
2022-07-28T10:26:48.641Z,26.20
2022-07-28T10:29:18.183Z,26.40
2022-07-28T10:31:49.446Z,26.60
2022-07-28T10:34:24.847Z,27.00
2022-07-28T10:36:55.301Z,27.20
2022-07-28T10:39:26.588Z,27.30
2022-07-28T10:41:57.648Z,27.50
2022-07-28T10:44:25.846Z,27.50
2022-07-28T10:46:54.414Z,27.30
2022-07-28T10:49:22.636Z,27.40
2022-07-28T10:52:08.683Z,27.60
2022-07-28T10:54:49.831Z,27.80
2022-07-28T10:57:19.791Z,28.00
2022-07-28T11:00:13.324Z,28.20
2022-07-28T11:02:46.277Z,28.50
2022-07-28T11:05:32.682Z,28.70
2022-07-28T11:08:02.573Z,28.60
2022-07-28T11:10:43.058Z,28.90
2022-07-28T11:13:28.886Z,29.20
2022-07-28T11:15:58.013Z,29.50
2022-07-28T11:18:29.167Z,29.80
2022-07-28T11:21:08.062Z,30.00
2022-07-28T11:23:46.649Z,30.10
2022-07-28T11:26:38.491Z,30.00
2022-07-28T11:29:21.859Z,30.10
2022-07-28T11:32:04.914Z,29.90
2022-07-28T11:35:18.963Z,29.70
2022-07-28T11:38:11.646Z,30.00
2022-07-28T11:40:42.115Z,30.30
2022-07-28T11:43:37.711Z,30.40
2022-07-28T11:46:37.339Z,30.80
2022-07-28T11:49:18.274Z,30.90
2022-07-28T11:52:19.525Z,30.80
2022-07-28T11:54:54.959Z,30.70
2022-07-28T11:57:25.843Z,30.60
2022-07-28T12:00:00.273Z,30.80
2022-07-28T12:02:31.933Z,31.10
2022-07-28T12:05:05.575Z,31.60
2022-07-28T12:07:39.326Z,31.90
2022-07-28T12:10:54.834Z,32.10
2022-07-28T12:13:28.825Z,32.00
2022-07-28T12:15:57.079Z,32.10
2022-07-28T12:18:27.407Z,32.30
2022-07-28T12:20:55.829Z,32.70
2022-07-28T12:23:38.673Z,33.10
2022-07-28T12:26:13.755Z,33.70
2022-07-28T12:28:51.352Z,33.80
2022-07-28T12:31:25.749Z,33.70
2022-07-28T12:33:55.468Z,33.50
2022-07-28T12:36:24.533Z,33.70
2022-07-28T12:38:53.490Z,33.90
2022-07-28T12:41:21.692Z,33.80
2022-07-28T12:43:54.559Z,34.00
2022-07-28T12:46:23.679Z,33.90
2022-07-28T12:48:58.856Z,33.80
2022-07-28T12:51:37.138Z,33.80
2022-07-28T12:54:07.366Z,33.40
2022-07-28T12:56:45.734Z,32.90
2022-07-28T12:59:14.333Z,32.10
2022-07-28T13:01:46.998Z,32.00
2022-07-28T13:04:37.727Z,31.90
2022-07-28T13:07:09.597Z,31.80
2022-07-28T13:09:39.648Z,32.00
2022-07-28T13:12:16.385Z,32.20
2022-07-28T13:14:46.205Z,32.20
2022-07-28T13:17:14.427Z,32.50
2022-07-28T13:19:45.382Z,33.00
2022-07-28T13:22:13.346Z,33.80
2022-07-28T13:24:41.501Z,34.40
2022-07-28T13:27:10.617Z,35.00
2022-07-28T13:29:38.495Z,35.40
2022-07-28T13:32:07.359Z,35.50
2022-07-28T13:34:35.463Z,35.50
2022-07-28T13:37:04.973Z,35.50
2022-07-28T13:39:32.946Z,35.50
2022-07-28T13:42:05.727Z,35.20
2022-07-28T13:44:35.099Z,34.60
2022-07-28T13:47:05.726Z,34.20
2022-07-28T13:49:37.254Z,33.80
2022-07-28T13:52:13.244Z,33.40
2022-07-28T13:54:41.367Z,33.50
2022-07-28T13:57:09.324Z,33.40
2022-07-28T13:59:38.245Z,33.20
2022-07-28T14:02:15.453Z,32.90
2022-07-28T14:04:50.350Z,32.90
2022-07-28T14:07:21.535Z,32.90
2022-07-28T14:09:51.071Z,33.20
2022-07-28T14:12:19.305Z,33.40
2022-07-28T14:14:48.462Z,33.50
2022-07-28T14:17:42.764Z,33.40
2022-07-28T14:20:06.035Z,33.00
2022-07-28T14:22:35.433Z,32.90
2022-07-28T14:25:03.579Z,32.80
2022-07-28T14:27:31.711Z,32.40
2022-07-28T14:29:59.591Z,31.70
2022-07-28T14:32:31.677Z,31.40
2022-07-28T14:34:59.700Z,31.20
2022-07-28T14:37:36.216Z,30.80
2022-07-28T14:40:17.391Z,30.70
2022-07-28T14:42:45.555Z,30.50
2022-07-28T14:45:13.608Z,30.30
2022-07-28T14:47:43.966Z,30.20
2022-07-28T14:50:13.953Z,30.10
2022-07-28T14:52:44.839Z,30.10
2022-07-28T14:55:13.568Z,30.20
2022-07-28T14:57:50.310Z,30.50
2022-07-28T15:00:23.436Z,31.10
2022-07-28T15:02:52.835Z,32.00
2022-07-28T15:05:21.648Z,32.40
2022-07-28T15:07:51.886Z,32.70
2022-07-28T15:10:20.501Z,32.60
2022-07-28T15:12:50.625Z,32.50
2022-07-28T15:15:18.675Z,32.30
2022-07-28T15:17:46.641Z,32.00
2022-07-28T15:20:14.680Z,31.80
2022-07-28T15:22:42.529Z,31.50
2022-07-28T15:25:10.884Z,31.30
2022-07-28T15:27:44.431Z,31.00
2022-07-28T15:30:15.496Z,30.80
2022-07-28T15:32:56.225Z,30.60
2022-07-28T15:35:25.433Z,30.40
2022-07-28T15:37:53.308Z,30.30
2022-07-28T15:40:22.058Z,30.10
2022-07-28T15:42:50.031Z,29.90
2022-07-28T15:45:19.399Z,29.80
2022-07-28T15:47:48.210Z,29.80
2022-07-28T15:50:16.275Z,29.80
2022-07-28T15:52:44.156Z,29.80
2022-07-28T15:55:12.198Z,29.80
2022-07-28T15:57:40.142Z,29.80
2022-07-28T16:00:09.032Z,29.80
2022-07-28T16:02:38.658Z,29.80
2022-07-28T16:05:06.992Z,29.90
2022-07-28T16:07:35.653Z,29.80
2022-07-28T16:10:04.072Z,29.90
2022-07-28T16:12:32.161Z,30.00
2022-07-28T16:15:00.034Z,30.00
2022-07-28T16:17:27.946Z,30.00
2022-07-28T16:19:58.665Z,29.90
2022-07-28T16:22:30.484Z,29.80
2022-07-28T16:24:58.337Z,29.70
2022-07-28T16:27:26.247Z,29.60
2022-07-28T16:29:54.394Z,29.50
2022-07-28T16:32:22.434Z,29.40
2022-07-28T16:34:51.714Z,29.30
2022-07-28T16:37:21.000Z,29.30
2022-07-28T16:39:49.406Z,29.30
2022-07-28T16:42:17.850Z,29.10
2022-07-28T16:44:45.851Z,29.10
2022-07-28T16:47:14.086Z,29.20
2022-07-28T16:49:45.326Z,29.10
2022-07-28T16:52:14.182Z,29.00
2022-07-28T16:54:43.426Z,29.00
2022-07-28T16:57:11.359Z,29.10
2022-07-28T16:59:47.916Z,29.10
2022-07-28T17:02:17.171Z,29.00
2022-07-28T17:04:45.140Z,28.90
2022-07-28T17:07:13.409Z,28.90
2022-07-28T17:09:42.688Z,28.90
2022-07-28T17:12:10.821Z,28.80
2022-07-28T17:14:38.688Z,28.80
2022-07-28T17:17:06.524Z,28.80
2022-07-28T17:19:35.423Z,28.80
2022-07-28T17:22:06.792Z,28.80
2022-07-28T17:24:35.096Z,28.80
2022-07-28T17:27:36.671Z,28.80
2022-07-28T17:29:52.405Z,28.80
2022-07-28T17:32:20.234Z,28.80
2022-07-28T17:34:48.110Z,28.80
2022-07-28T17:37:15.976Z,28.60
2022-07-28T17:39:43.879Z,28.50
2022-07-28T17:42:13.043Z,28.30
2022-07-28T17:44:41.271Z,28.30
2022-07-28T17:47:09.186Z,28.30
2022-07-28T17:49:42.071Z,28.20
2022-07-28T17:52:12.913Z,28.10
2022-07-28T17:54:54.715Z,28.10
2022-07-28T17:57:23.908Z,28.00
2022-07-28T17:59:54.709Z,28.00
2022-07-28T18:02:22.611Z,27.90
2022-07-28T18:04:50.655Z,27.90
2022-07-28T18:07:18.599Z,27.80
2022-07-28T18:09:46.563Z,27.80
2022-07-28T18:12:14.440Z,27.80
2022-07-28T18:14:44.081Z,27.80
2022-07-28T18:17:12.039Z,27.70
2022-07-28T18:19:44.999Z,27.70
2022-07-28T18:22:13.404Z,27.60
2022-07-28T18:24:41.265Z,27.60
2022-07-28T18:27:10.058Z,27.60
2022-07-28T18:29:38.979Z,27.60
2022-07-28T18:32:09.933Z,27.50
2022-07-28T18:34:39.106Z,27.50
2022-07-28T18:37:07.134Z,27.40
2022-07-28T18:39:35.076Z,27.40
2022-07-28T18:42:02.980Z,27.40
2022-07-28T18:44:30.986Z,27.40
2022-07-28T18:46:59.566Z,27.30
2022-07-28T18:49:28.855Z,27.30
2022-07-28T18:52:05.898Z,27.30
2022-07-28T18:54:33.868Z,27.20
2022-07-28T18:57:01.727Z,27.10
2022-07-28T18:59:29.710Z,27.10
2022-07-28T19:01:57.622Z,27.10
2022-07-28T19:04:25.608Z,27.00
2022-07-28T19:06:55.691Z,26.90
2022-07-28T19:09:23.729Z,26.90
2022-07-28T19:11:51.909Z,26.90
2022-07-28T19:14:20.252Z,26.80
2022-07-28T19:16:48.539Z,26.70
2022-07-28T19:19:16.478Z,26.60
2022-07-28T19:21:44.435Z,26.60
2022-07-28T19:24:14.816Z,26.50
2022-07-28T19:26:45.319Z,26.50
2022-07-28T19:29:13.583Z,26.40
2022-07-28T19:31:41.554Z,26.40
2022-07-28T19:34:09.864Z,26.30
2022-07-28T19:36:38.388Z,26.30
2022-07-28T19:39:06.321Z,26.20
2022-07-28T19:41:35.758Z,26.20
2022-07-28T19:44:03.624Z,26.10
2022-07-28T19:46:31.723Z,26.10
2022-07-28T19:48:59.815Z,26.00
2022-07-28T19:51:27.954Z,26.00
2022-07-28T19:53:58.464Z,26.00
2022-07-28T19:56:31.078Z,25.90
2022-07-28T19:59:00.997Z,25.80
2022-07-28T20:01:29.249Z,25.80
2022-07-28T20:04:01.021Z,25.80
2022-07-28T20:06:32.595Z,25.80
2022-07-28T20:09:01.194Z,25.70
2022-07-28T20:11:29.103Z,25.70
2022-07-28T20:13:57.010Z,25.70
2022-07-28T20:16:26.346Z,25.70
2022-07-28T20:18:54.557Z,25.60
2022-07-28T20:21:24.003Z,25.60
2022-07-28T20:23:53.609Z,25.60
2022-07-28T20:26:23.525Z,25.50
2022-07-28T20:28:51.919Z,25.50
2022-07-28T20:31:20.837Z,25.40
2022-07-28T20:33:50.653Z,25.40
2022-07-28T20:36:18.587Z,25.40
2022-07-28T20:38:46.462Z,25.30
2022-07-28T20:41:14.327Z,25.30
2022-07-28T20:43:42.190Z,25.20
2022-07-28T20:46:10.183Z,25.10
2022-07-28T20:48:38.267Z,25.10
2022-07-28T20:51:07.737Z,25.10
2022-07-28T20:53:37.335Z,25.00
2022-07-28T20:56:06.661Z,25.00
2022-07-28T20:58:34.637Z,25.00
2022-07-28T21:01:02.720Z,24.90
2022-07-28T21:03:30.626Z,24.90
2022-07-28T21:05:58.564Z,24.90
2022-07-28T21:08:27.851Z,24.90
2022-07-28T21:10:55.764Z,24.80
2022-07-28T21:13:23.768Z,24.80
2022-07-28T21:15:51.704Z,24.80
2022-07-28T21:18:19.645Z,24.80
2022-07-28T21:20:47.615Z,24.70
2022-07-28T21:23:15.508Z,24.70
2022-07-28T21:25:45.525Z,24.60
2022-07-28T21:28:31.685Z,24.50
